Time,TemperatureF,DewpointF,PressureIn,WindDirection,WindDirectionDegrees,WindSpeedMPH,WindSpeedGustMPH,Humidity,HourlyPrecipIn,Conditions,Clouds,dailyrainin,SoftwareType,DateUTC
2013-01-29 00:01:00,38.1,37.1,30.07,NNE,22,1.0,1.0,96,0.00,,,0.48,Wunderground v.1.15,2013-01-29 05:01:00,
2013-01-29 00:06:00,38.0,37.0,30.07,NNW,328,1.0,1.0,96,0.00,,,0.00,Wunderground v.1.15,2013-01-29 05:06:00,
2013-01-29 00:10:00,37.9,36.9,30.07,NE,48,1.0,2.0,96,0.00,,,0.00,Wunderground v.1.15,2013-01-29 05:10:00,
2013-01-29 00:20:00,37.6,36.6,30.08,North,354,0.0,0.0,96,0.00,,,0.00,Wunderground v.1.15,2013-01-29 05:20:00,
2013-01-29 00:30:00,37.4,36.4,30.08,NNE,21,0.0,0.0,96,0.00,,,0.00,Wunderground v.1.15,2013-01-29 05:30:00,
2013-01-29 00:36:00,37.4,36.4,30.07,NNE,24,0.0,0.0,96,0.00,,,0.00,Wunderground v.1.15,2013-01-29 05:36:00,
2013-01-29 00:45:00,37.2,36.2,30.07,NNE,24,0.0,1.0,96,0.00,,,0.00,Wunderground v.1.15,2013-01-29 05:45:00,
2013-01-29 00:51:00,37.2,36.4,30.06,NNE,24,0.0,0.0,97,0.00,,,0.00,Wunderground v.1.15,2013-01-29 05:51:00,
2013-01-29 01:01:00,37.1,36.3,30.06,NNE,24,0.0,0.0,97,0.00,,,0.00,Wunderground v.1.15,2013-01-29 06:01:00,
2013-01-29 01:10:00,37.1,36.3,30.05,NNE,24,0.0,0.0,97,0.00,,,0.00,Wunderground v.1.15,2013-01-29 06:10:00,
2013-01-29 01:20:00,37.1,36.3,30.05,East,96,0.0,0.0,97,0.00,,,0.00,Wunderground v.1.15,2013-01-29 06:20:00,
2013-01-29 01:25:00,37.0,36.2,30.05,ENE,77,0.0,0.0,97,0.00,,,0.00,Wunderground v.1.15,2013-01-29 06:25:00,
2013-01-29 01:35:00,36.9,36.1,30.04,ENE,76,0.0,2.0,97,0.00,,,0.00,Wunderground v.1.15,2013-01-29 06:35:00,
2013-01-29 01:40:00,36.9,36.1,30.04,East,94,1.0,1.0,97,0.00,,,0.00,Wunderground v.1.15,2013-01-29 06:40:00,
2013-01-29 01:50:00,36.9,36.1,30.04,ENE,74,0.0,0.0,97,0.00,,,0.00,Wunderground v.1.15,2013-01-29 06:50:00,
2013-01-29 01:56:00,36.9,36.1,30.04,ENE,74,0.0,1.0,97,0.00,,,0.00,Wunderground v.1.15,2013-01-29 06:56:00,
2013-01-29 02:01:00,36.9,36.1,30.04,ENE,75,0.0,0.0,97,0.00,,,0.00,Wunderground v.1.15,2013-01-29 07:01:00,
2013-01-29 02:10:00,36.8,36.0,30.03,ESE,105,0.0,1.0,97,0.00,,,0.00,Wunderground v.1.15,2013-01-29 07:10:00,
2013-01-29 02:16:00,36.8,36.0,30.03,East,82,0.0,1.0,97,0.00,,,0.00,Wunderground v.1.15,2013-01-29 07:16:00,
2013-01-29 02:25:00,36.4,35.6,30.03,ESE,102,1.0,1.0,97,0.00,,,0.00,Wunderground v.1.15,2013-01-29 07:25:00,
2013-01-29 02:35:00,36.0,35.0,30.03,ESE,110,1.0,1.0,96,0.00,,,0.00,Wunderground v.1.15,2013-01-29 07:35:00,
2013-01-29 02:45:00,35.7,34.9,30.03,SE,129,0.0,1.0,97,0.00,,,0.00,Wunderground v.1.15,2013-01-29 07:45:00,
2013-01-29 02:51:00,35.7,34.9,30.04,East,84,0.0,1.0,97,0.00,,,0.00,Wunderground v.1.15,2013-01-29 07:51:00,
2013-01-29 03:01:00,35.7,34.9,30.03,ESE,115,1.0,1.0,97,0.00,,,0.00,Wunderground v.1.15,2013-01-29 08:01:00,
2013-01-29 03:10:00,35.7,34.9,30.03,SE,139,1.0,1.0,97,0.00,,,0.00,Wunderground v.1.15,2013-01-29 08:10:00,
2013-01-29 03:20:00,35.8,35.0,30.02,East,98,1.0,1.0,97,0.00,,,0.00,Wunderground v.1.15,2013-01-29 08:20:00,
2013-01-29 03:26:00,35.9,35.1,30.02,East,95,1.0,1.0,97,0.00,,,0.00,Wunderground v.1.15,2013-01-29 08:26:00,
2013-01-29 03:35:00,36.1,35.3,30.02,ENE,71,1.0,3.0,97,0.00,,,0.00,Wunderground v.1.15,2013-01-29 08:35:00,
2013-01-29 03:41:00,36.1,35.3,30.02,East,90,2.0,2.0,97,0.00,,,0.00,Wunderground v.1.15,2013-01-29 08:41:00,
2013-01-29 03:50:00,36.0,35.2,30.02,ESE,111,2.0,2.0,97,0.00,,,0.00,Wunderground v.1.15,2013-01-29 08:50:00,
2013-01-29 04:00:00,35.7,34.9,30.01,East,79,2.0,2.0,97,0.00,,,0.00,Wunderground v.1.15,2013-01-29 09:00:00,
2013-01-29 04:06:00,35.7,34.9,30.00,ESE,122,2.0,3.0,97,0.00,,,0.00,Wunderground v.1.15,2013-01-29 09:06:00,
2013-01-29 04:15:00,35.6,34.8,30.00,ENE,78,2.0,2.0,97,0.00,,,0.00,Wunderground v.1.15,2013-01-29 09:15:00,
2013-01-29 04:21:00,35.6,34.8,29.99,ESE,113,2.0,2.0,97,0.00,,,0.00,Wunderground v.1.15,2013-01-29 09:21:00,
2013-01-29 04:30:00,35.6,34.8,29.98,East,79,2.0,2.0,97,0.00,,,0.00,Wunderground v.1.15,2013-01-29 09:30:00,
2013-01-29 04:40:00,35.6,34.8,29.98,ESE,115,2.0,3.0,97,0.00,,,0.00,Wunderground v.1.15,2013-01-29 09:40:00,
2013-01-29 04:50:00,35.5,34.7,29.98,ENE,72,3.0,3.0,97,0.15,,,0.02,Wunderground v.1.15,2013-01-29 09:50:00,
2013-01-29 04:56:00,35.4,34.6,29.99,NE,47,3.0,3.0,97,0.16,,,0.04,Wunderground v.1.15,2013-01-29 09:56:00,
2013-01-29 05:01:00,35.3,34.5,29.97,East,85,2.0,2.0,97,1.07,,,0.10,Wunderground v.1.15,2013-01-29 10:01:00,
2013-01-29 05:10:00,35.3,34.5,29.98,East,86,2.0,2.0,97,0.58,,,0.17,Wunderground v.1.15,2013-01-29 10:10:00,
2013-01-29 05:16:00,35.3,34.5,29.99,NNE,21,1.0,2.0,97,0.37,,,0.23,Wunderground v.1.15,2013-01-29 10:16:00,
2013-01-29 05:25:00,35.4,34.6,29.97,SE,135,2.0,3.0,97,0.96,,,0.44,Wunderground v.1.15,2013-01-29 10:25:00,
2013-01-29 05:36:00,35.5,34.7,29.97,SE,131,2.0,4.0,97,0.76,,,0.57,Wunderground v.1.15,2013-01-29 10:36:00,
2013-01-29 05:45:00,35.7,34.9,29.96,ENE,60,3.0,5.0,97,0.07,,,0.58,Wunderground v.1.15,2013-01-29 10:45:00,
2013-01-29 05:51:00,35.6,34.8,29.95,ENE,58,3.0,3.0,97,0.04,,,0.58,Wunderground v.1.15,2013-01-29 10:51:00,
2013-01-29 06:01:00,35.5,34.7,29.93,ESE,113,3.0,3.0,97,0.00,,,0.58,Wunderground v.1.15,2013-01-29 11:01:00,
2013-01-29 06:06:00,35.6,34.8,29.94,East,98,3.0,3.0,97,0.00,,,0.58,Wunderground v.1.15,2013-01-29 11:06:00,
2013-01-29 06:15:00,36.1,35.6,29.93,ESE,105,2.0,4.0,98,0.00,,,0.58,Wunderground v.1.15,2013-01-29 11:15:00,
2013-01-29 06:21:00,36.4,35.9,29.93,East,91,2.0,2.0,98,0.00,,,0.58,Wunderground v.1.15,2013-01-29 11:21:00,
2013-01-29 06:31:00,36.9,36.4,29.92,East,93,2.0,3.0,98,0.00,,,0.58,Wunderground v.1.15,2013-01-29 11:31:00,
2013-01-29 06:40:00,37.7,37.2,29.90,ESE,123,2.0,3.0,98,0.00,,,0.58,Wunderground v.1.15,2013-01-29 11:40:00,
2013-01-29 06:45:00,38.0,37.5,29.90,ESE,107,3.0,3.0,98,0.00,,,0.58,Wunderground v.1.15,2013-01-29 11:45:00,
2013-01-29 06:55:00,38.3,37.8,29.90,ESE,123,2.0,2.0,98,0.00,,,0.58,Wunderground v.1.15,2013-01-29 11:55:00,
2013-01-29 07:00:00,38.5,38.0,29.89,ENE,70,2.0,3.0,98,0.00,,,0.58,Wunderground v.1.15,2013-01-29 12:00:00,
2013-01-29 07:06:00,38.6,38.1,29.90,East,83,2.0,6.0,98,0.00,,,0.58,Wunderground v.1.15,2013-01-29 12:06:00,
2013-01-29 07:15:00,38.8,38.3,29.90,East,86,2.0,2.0,98,0.00,,,0.58,Wunderground v.1.15,2013-01-29 12:15:00,
2013-01-29 07:20:00,38.9,38.4,29.89,ESE,107,1.0,3.0,98,0.00,,,0.58,Wunderground v.1.15,2013-01-29 12:20:00,
2013-01-29 07:30:00,39.0,38.5,29.90,ESE,122,1.0,3.0,98,0.00,,,0.58,Wunderground v.1.15,2013-01-29 12:30:00,
2013-01-29 07:35:00,38.8,38.3,29.89,SE,141,1.0,3.0,98,0.00,,,0.58,Wunderground v.1.15,2013-01-29 12:35:00,
2013-01-29 07:46:00,38.7,38.2,29.89,ESE,106,1.0,1.0,98,0.00,,,0.58,Wunderground v.1.15,2013-01-29 12:46:00,
2013-01-29 07:55:00,39.0,38.5,29.88,SW,221,0.0,1.0,98,0.00,,,0.58,Wunderground v.1.15,2013-01-29 12:55:00,
2013-01-29 08:01:00,39.5,39.0,29.88,WSW,240,0.0,0.0,98,0.00,,,0.58,Wunderground v.1.15,2013-01-29 13:01:00,
2013-01-29 08:10:00,40.0,39.5,29.88,ENE,77,1.0,1.0,98,0.00,,,0.58,Wunderground v.1.15,2013-01-29 13:10:00,
2013-01-29 08:20:00,40.2,39.7,29.88,ESE,115,0.0,0.0,98,0.00,,,0.58,Wunderground v.1.15,2013-01-29 13:20:00,
2013-01-29 08:30:00,41.0,40.5,29.88,ESE,110,1.0,1.0,98,0.00,,,0.58,Wunderground v.1.15,2013-01-29 13:30:00,
2013-01-29 08:36:00,41.6,41.1,29.90,SW,219,2.0,2.0,98,0.00,,,0.58,Wunderground v.1.15,2013-01-29 13:36:00,
2013-01-29 08:45:00,42.0,41.5,29.89,SW,219,1.0,2.0,98,0.23,,,0.60,Wunderground v.1.15,2013-01-29 13:45:00,
2013-01-29 08:51:00,42.2,41.7,29.89,SSE,151,1.0,2.0,98,0.15,,,0.61,Wunderground v.1.15,2013-01-29 13:51:00,
2013-01-29 09:01:00,42.7,42.2,29.89,SW,226,2.0,2.0,98,0.06,,,0.62,Wunderground v.1.15,2013-01-29 14:01:00,
2013-01-29 09:10:00,43.7,43.2,29.88,SW,223,3.0,4.0,98,0.04,,,0.63,Wunderground v.1.15,2013-01-29 14:10:00,
2013-01-29 09:21:00,44.9,44.4,29.87,SSW,205,3.0,4.0,98,0.34,,,0.68,Wunderground v.1.15,2013-01-29 14:21:00,
2013-01-29 09:30:00,46.3,45.8,29.86,SW,225,3.0,4.0,98,0.17,,,0.71,Wunderground v.1.15,2013-01-29 14:30:00,
2013-01-29 09:36:00,47.2,46.7,29.86,SSW,203,3.0,4.0,98,0.12,,,0.72,Wunderground v.1.15,2013-01-29 14:36:00,
2013-01-29 09:45:00,48.7,48.2,29.86,SSW,207,3.0,4.0,98,0.04,,,0.72,Wunderground v.1.15,2013-01-29 14:45:00,
2013-01-29 09:51:00,49.3,48.8,29.86,WSW,248,4.0,4.0,98,0.00,,,0.72,Wunderground v.1.15,2013-01-29 14:51:00,
2013-01-29 10:01:00,50.0,49.5,29.87,SW,235,4.0,4.0,98,0.00,,,0.72,Wunderground v.1.15,2013-01-29 15:01:00,
2013-01-29 10:11:00,50.6,50.1,29.86,SW,230,4.0,4.0,98,0.00,,,0.72,Wunderground v.1.15,2013-01-29 15:11:00,
2013-01-29 10:20:00,50.9,50.4,29.87,SSW,213,3.0,3.0,98,0.00,,,0.72,Wunderground v.1.15,2013-01-29 15:20:00,
2013-01-29 10:26:00,51.1,50.6,29.87,SW,224,3.0,7.0,98,0.00,,,0.72,Wunderground v.1.15,2013-01-29 15:26:00,
2013-01-29 10:35:00,51.4,50.9,29.86,SW,233,4.0,4.0,98,0.00,,,0.72,Wunderground v.1.15,2013-01-29 15:35:00,
2013-01-29 10:40:00,51.5,51.0,29.85,SW,226,4.0,4.0,98,0.00,,,0.72,Wunderground v.1.15,2013-01-29 15:40:00,
2013-01-29 10:50:00,51.9,51.4,29.86,SSW,207,4.0,4.0,98,0.00,,,0.72,Wunderground v.1.15,2013-01-29 15:50:00,
2013-01-29 10:56:00,52.1,51.6,29.86,SW,219,4.0,6.0,98,0.00,,,0.72,Wunderground v.1.15,2013-01-29 15:56:00,
2013-01-29 11:01:00,52.3,51.8,29.86,SSE,167,4.0,6.0,98,0.00,,,0.72,Wunderground v.1.15,2013-01-29 16:01:00,
2013-01-29 11:10:00,52.5,52.0,29.85,SW,221,4.0,4.0,98,0.00,,,0.73,Wunderground v.1.15,2013-01-29 16:10:00,
2013-01-29 11:15:00,52.8,52.3,29.85,South,188,4.0,6.0,98,0.00,,,0.73,Wunderground v.1.15,2013-01-29 16:15:00,
2013-01-29 11:25:00,53.1,52.6,29.85,SW,231,4.0,6.0,98,0.00,,,0.73,Wunderground v.1.15,2013-01-29 16:25:00,
2013-01-29 11:30:00,53.4,52.8,29.85,SE,143,4.0,4.0,98,0.00,,,0.73,Wunderground v.1.15,2013-01-29 16:30:00,
2013-01-29 11:40:00,53.7,53.1,29.85,SW,227,4.0,4.0,98,0.00,,,0.73,Wunderground v.1.15,2013-01-29 16:40:00,
2013-01-29 11:46:00,53.9,53.1,29.85,SW,224,4.0,4.0,97,0.00,,,0.73,Wunderground v.1.15,2013-01-29 16:46:00,
2013-01-29 11:55:00,54.0,53.2,29.86,SW,223,4.0,4.0,97,0.00,,,0.73,Wunderground v.1.15,2013-01-29 16:55:00,
2013-01-29 12:01:00,54.1,53.3,29.85,SW,229,3.0,3.0,97,0.00,,,0.73,Wunderground v.1.15,2013-01-29 17:01:00,
2013-01-29 12:10:00,54.2,53.4,29.85,WSW,239,4.0,4.0,97,0.00,,,0.73,Wunderground v.1.15,2013-01-29 17:10:00,
2013-01-29 12:16:00,54.3,53.5,29.84,SSE,167,4.0,4.0,97,0.00,,,0.73,Wunderground v.1.15,2013-01-29 17:16:00,
2013-01-29 12:25:00,54.5,53.7,29.83,SW,224,3.0,5.0,97,0.00,,,0.74,Wunderground v.1.15,2013-01-29 17:25:00,
2013-01-29 12:31:00,54.6,53.5,29.82,SW,218,3.0,4.0,96,0.00,,,0.74,Wunderground v.1.15,2013-01-29 17:31:00,
2013-01-29 12:40:00,54.5,53.4,29.82,SSW,209,4.0,4.0,96,0.00,,,0.74,Wunderground v.1.15,2013-01-29 17:40:00,
2013-01-29 12:46:00,54.5,53.4,29.82,SW,231,5.0,5.0,96,0.00,,,0.74,Wunderground v.1.15,2013-01-29 17:46:00,
2013-01-29 12:55:00,54.5,53.4,29.82,SW,224,4.0,6.0,96,0.00,,,0.75,Wunderground v.1.15,2013-01-29 17:55:00,
2013-01-29 13:01:00,54.7,53.6,29.81,SW,227,5.0,9.0,96,0.00,,,0.75,Wunderground v.1.15,2013-01-29 18:01:00,
2013-01-29 13:10:00,54.8,53.7,29.81,SW,218,5.0,6.0,96,0.00,,,0.75,Wunderground v.1.15,2013-01-29 18:10:00,
2013-01-29 13:20:00,55.1,53.7,29.81,WSW,242,5.0,6.0,95,0.00,,,0.75,Wunderground v.1.15,2013-01-29 18:20:00,
2013-01-29 13:30:00,55.4,54.0,29.80,SW,236,5.0,5.0,95,0.00,,,0.75,Wunderground v.1.15,2013-01-29 18:30:00,
2013-01-29 13:35:00,55.5,54.1,29.80,SW,232,4.0,5.0,95,0.00,,,0.75,Wunderground v.1.15,2013-01-29 18:35:00,
2013-01-29 13:46:00,55.7,54.0,29.80,SSW,206,4.0,4.0,94,0.00,,,0.75,Wunderground v.1.15,2013-01-29 18:46:00,
2013-01-29 13:55:00,55.9,54.2,29.80,SW,234,4.0,4.0,94,0.00,,,0.75,Wunderground v.1.15,2013-01-29 18:55:00,
2013-01-29 14:01:00,56.1,54.4,29.79,SW,231,4.0,5.0,94,0.00,,,0.75,Wunderground v.1.15,2013-01-29 19:01:00,
2013-01-29 14:10:00,56.5,54.5,29.79,SSW,208,5.0,5.0,93,0.00,,,0.75,Wunderground v.1.15,2013-01-29 19:10:00,
2013-01-29 14:21:00,56.7,54.4,29.79,WSW,239,5.0,5.0,92,0.00,,,0.75,Wunderground v.1.15,2013-01-29 19:21:00,
2013-01-29 14:30:00,56.6,54.6,29.78,SW,233,4.0,4.0,93,0.00,,,0.75,Wunderground v.1.15,2013-01-29 19:30:00,
2013-01-29 14:41:00,56.6,54.6,29.78,West,264,4.0,4.0,93,0.00,,,0.75,Wunderground v.1.15,2013-01-29 19:41:00,
2013-01-29 14:50:00,56.7,54.4,29.78,SW,226,4.0,4.0,92,0.00,,,0.75,Wunderground v.1.15,2013-01-29 19:50:00,
2013-01-29 14:56:00,56.8,54.5,29.78,SW,223,5.0,6.0,92,0.00,,,0.75,Wunderground v.1.15,2013-01-29 19:56:00,
2013-01-29 15:01:00,56.9,54.3,29.78,SW,220,5.0,5.0,91,0.00,,,0.75,Wunderground v.1.15,2013-01-29 20:01:00,
2013-01-29 15:05:00,56.8,54.2,29.77,SE,135,4.0,5.0,91,0.00,,,0.75,Wunderground v.1.15,2013-01-29 20:05:00,
2013-01-29 15:15:00,56.9,54.3,29.78,SW,220,5.0,5.0,91,0.00,,,0.75,Wunderground v.1.15,2013-01-29 20:15:00,
2013-01-29 15:21:00,57.0,54.4,29.78,SW,214,5.0,5.0,91,0.00,,,0.75,Wunderground v.1.15,2013-01-29 20:21:00,
2013-01-29 15:30:00,57.0,54.4,29.77,ESE,110,4.0,4.0,91,0.00,,,0.75,Wunderground v.1.15,2013-01-29 20:30:00,
2013-01-29 15:36:00,56.9,54.6,29.78,SW,217,4.0,5.0,92,0.00,,,0.76,Wunderground v.1.15,2013-01-29 20:36:00,
2013-01-29 15:45:00,56.5,54.5,29.78,SW,215,3.0,6.0,93,0.07,,,0.77,Wunderground v.1.15,2013-01-29 20:45:00,
2013-01-29 15:51:00,56.4,54.4,29.77,SSW,193,4.0,4.0,93,0.04,,,0.77,Wunderground v.1.15,2013-01-29 20:51:00,
2013-01-29 16:01:00,56.3,54.6,29.76,SSE,163,4.0,5.0,94,1.31,,,0.85,Wunderground v.1.15,2013-01-29 21:01:00,
2013-01-29 16:11:00,56.0,54.6,29.76,SW,231,4.0,4.0,95,0.09,,,0.88,Wunderground v.1.15,2013-01-29 21:11:00,
2013-01-29 16:20:00,56.1,54.4,29.77,SW,231,4.0,4.0,94,0.04,,,0.88,Wunderground v.1.15,2013-01-29 21:20:00,
2013-01-29 16:31:00,56.3,54.6,29.77,SW,220,4.0,4.0,94,0.00,,,0.88,Wunderground v.1.15,2013-01-29 21:31:00,
2013-01-29 16:36:00,56.4,54.7,29.77,SSW,207,4.0,4.0,94,0.00,,,0.88,Wunderground v.1.15,2013-01-29 21:36:00,
2013-01-29 16:45:00,56.5,54.5,29.76,SE,139,4.0,5.0,93,0.00,,,0.88,Wunderground v.1.15,2013-01-29 21:45:00,
2013-01-29 16:50:00,56.6,54.6,29.76,SW,236,4.0,4.0,93,0.00,,,0.88,Wunderground v.1.15,2013-01-29 21:50:00,
2013-01-29 17:01:00,56.8,54.5,29.76,SW,214,4.0,4.0,92,0.00,,,0.88,Wunderground v.1.15,2013-01-29 22:01:00,
2013-01-29 17:11:00,57.0,54.7,29.76,SW,233,4.0,4.0,92,0.00,,,0.88,Wunderground v.1.15,2013-01-29 22:11:00,
2013-01-29 17:20:00,57.1,54.8,29.76,SW,233,4.0,4.0,92,0.00,,,0.88,Wunderground v.1.15,2013-01-29 22:20:00,
2013-01-29 17:26:00,57.0,54.4,29.76,SW,233,4.0,4.0,91,0.00,,,0.88,Wunderground v.1.15,2013-01-29 22:26:00,
2013-01-29 17:35:00,57.1,54.5,29.76,SW,214,4.0,5.0,91,0.00,,,0.88,Wunderground v.1.15,2013-01-29 22:35:00,
2013-01-29 17:45:00,57.3,54.7,29.76,WSW,247,4.0,4.0,91,0.00,,,0.88,Wunderground v.1.15,2013-01-29 22:45:00,
2013-01-29 17:56:00,57.5,54.6,29.75,SW,224,5.0,6.0,90,0.00,,,0.88,Wunderground v.1.15,2013-01-29 22:56:00,
2013-01-29 18:01:00,57.6,54.7,29.75,SSW,203,6.0,6.0,90,0.00,,,0.88,Wunderground v.1.15,2013-01-29 23:01:00,
2013-01-29 18:10:00,57.7,54.5,29.75,WSW,247,5.0,6.0,89,0.00,,,0.88,Wunderground v.1.15,2013-01-29 23:10:00,
2013-01-29 18:16:00,57.6,54.4,29.75,SW,220,6.0,6.0,89,0.00,,,0.88,Wunderground v.1.15,2013-01-29 23:16:00,
2013-01-29 18:25:00,57.4,54.2,29.74,ESE,105,5.0,6.0,89,0.00,,,0.88,Wunderground v.1.15,2013-01-29 23:25:00,
2013-01-29 18:36:00,57.4,53.9,29.74,SSW,207,5.0,9.0,88,0.00,,,0.88,Wunderground v.1.15,2013-01-29 23:36:00,
2013-01-29 18:45:00,57.3,54.1,29.74,SSE,151,4.0,5.0,89,0.00,,,0.89,Wunderground v.1.15,2013-01-29 23:45:00,
2013-01-29 18:55:00,57.1,53.9,29.74,SW,225,5.0,9.0,89,0.00,,,0.89,Wunderground v.1.15,2013-01-29 23:55:00,
2013-01-29 19:01:00,57.2,54.0,29.74,SW,215,4.0,4.0,89,0.00,,,0.89,Wunderground v.1.15,2013-01-30 00:01:00,
2013-01-29 19:11:00,57.2,54.0,29.73,SSE,156,5.0,5.0,89,0.00,,,0.89,Wunderground v.1.15,2013-01-30 00:11:00,
2013-01-29 19:20:00,57.0,53.8,29.73,SW,217,5.0,9.0,89,0.00,,,0.89,Wunderground v.1.15,2013-01-30 00:20:00,
2013-01-29 19:26:00,56.8,53.6,29.73,SW,233,4.0,9.0,89,0.00,,,0.89,Wunderground v.1.15,2013-01-30 00:26:00,
2013-01-29 19:35:00,56.6,53.4,29.73,WSW,237,5.0,7.0,89,0.00,,,0.89,Wunderground v.1.15,2013-01-30 00:35:00,
2013-01-29 19:46:00,56.4,53.2,29.72,SW,214,4.0,5.0,89,0.00,,,0.89,Wunderground v.1.15,2013-01-30 00:46:00,
2013-01-29 19:55:00,56.5,53.3,29.72,West,260,5.0,5.0,89,0.00,,,0.89,Wunderground v.1.15,2013-01-30 00:55:00,
2013-01-29 20:01:00,56.5,53.3,29.72,SSW,211,3.0,3.0,89,0.00,,,0.89,Wunderground v.1.15,2013-01-30 01:01:00,
2013-01-29 20:11:00,56.3,53.1,29.72,ESE,111,2.0,2.0,89,0.00,,,0.89,Wunderground v.1.15,2013-01-30 01:11:00,
2013-01-29 20:20:00,55.9,52.7,29.71,South,177,2.0,2.0,89,0.00,,,0.89,Wunderground v.1.15,2013-01-30 01:20:00,
2013-01-29 20:30:00,55.1,51.9,29.71,SSW,201,1.0,1.0,89,0.00,,,0.89,Wunderground v.1.15,2013-01-30 01:30:00,
2013-01-29 20:35:00,54.5,51.6,29.70,SW,221,1.0,1.0,90,0.00,,,0.89,Wunderground v.1.15,2013-01-30 01:35:00,
2013-01-29 20:45:00,53.4,50.8,29.70,SW,221,1.0,2.0,91,0.00,,,0.89,Wunderground v.1.15,2013-01-30 01:45:00,
2013-01-29 20:55:00,52.6,50.3,29.69,SSW,206,1.0,2.0,92,0.00,,,0.89,Wunderground v.1.15,2013-01-30 01:55:00,
2013-01-29 21:00:00,52.4,50.4,29.68,SSW,210,1.0,1.0,93,0.00,,,0.89,Wunderground v.1.15,2013-01-30 02:00:00,
2013-01-29 21:10:00,52.1,50.1,29.67,ESE,121,1.0,1.0,93,0.00,,,0.89,Wunderground v.1.15,2013-01-30 02:10:00,
2013-01-29 21:20:00,52.0,50.3,29.67,SW,216,1.0,1.0,94,0.00,,,0.89,Wunderground v.1.15,2013-01-30 02:20:00,
2013-01-29 21:30:00,51.8,50.1,29.66,SW,218,0.0,1.0,94,0.00,,,0.89,Wunderground v.1.15,2013-01-30 02:30:00,
2013-01-29 21:35:00,51.8,50.4,29.66,SW,228,0.0,2.0,95,0.00,,,0.89,Wunderground v.1.15,2013-01-30 02:35:00,
2013-01-29 21:45:00,52.1,50.7,29.65,SW,231,1.0,4.0,95,0.00,,,0.89,Wunderground v.1.15,2013-01-30 02:45:00,
2013-01-29 21:50:00,52.2,50.8,29.65,SSW,211,1.0,2.0,95,0.00,,,0.89,Wunderground v.1.15,2013-01-30 02:50:00,
2013-01-29 22:00:00,52.5,51.1,29.63,SSE,151,1.0,4.0,95,0.00,,,0.89,Wunderground v.1.15,2013-01-30 03:00:00,
2013-01-29 22:10:00,52.6,50.9,29.62,SSE,167,2.0,2.0,94,0.00,,,0.89,Wunderground v.1.15,2013-01-30 03:10:00,
2013-01-29 22:20:00,53.0,51.3,29.61,SW,232,2.0,2.0,94,0.00,,,0.89,Wunderground v.1.15,2013-01-30 03:20:00,
2013-01-29 22:25:00,53.3,51.6,29.61,WSW,244,2.0,2.0,94,0.00,,,0.89,Wunderground v.1.15,2013-01-30 03:25:00,
2013-01-29 22:35:00,53.6,51.6,29.59,SW,221,2.0,3.0,93,0.00,,,0.89,Wunderground v.1.15,2013-01-30 03:35:00,
2013-01-29 22:45:00,53.7,51.7,29.58,WSW,238,2.0,5.0,93,0.00,,,0.89,Wunderground v.1.15,2013-01-30 03:45:00,
2013-01-29 22:50:00,53.8,51.8,29.58,SW,233,3.0,3.0,93,0.00,,,0.89,Wunderground v.1.15,2013-01-30 03:50:00,
2013-01-29 23:00:00,53.9,51.6,29.58,SSW,204,3.0,3.0,92,0.00,,,0.89,Wunderground v.1.15,2013-01-30 04:00:00,
2013-01-29 23:10:00,53.6,51.3,29.57,SSE,156,2.0,2.0,92,0.00,,,0.89,Wunderground v.1.15,2013-01-30 04:10:00,
2013-01-29 23:20:00,53.6,51.6,29.57,WSW,257,2.0,2.0,93,0.00,,,0.89,Wunderground v.1.15,2013-01-30 04:20:00,
2013-01-29 23:25:00,53.6,51.3,29.56,SSW,202,2.0,4.0,92,0.00,,,0.89,Wunderground v.1.15,2013-01-30 04:25:00,
2013-01-29 23:35:00,53.4,51.1,29.55,SW,222,3.0,3.0,92,0.00,,,0.89,Wunderground v.1.15,2013-01-30 04:35:00,
2013-01-29 23:45:00,53.1,50.5,29.54,SW,216,4.0,7.0,91,0.00,,,0.89,Wunderground v.1.15,2013-01-30 04:45:00,
2013-01-29 23:55:00,53.0,50.7,29.54,West,281,4.0,4.0,92,0.00,,,0.89,Wunderground v.1.15,2013-01-30 04:55:00,